createdAt,value
2018-07-19T00:02:05.329Z,49.32
2018-07-19T00:04:34.066Z,49.56
2018-07-19T00:07:02.806Z,49.68
2018-07-19T00:09:31.511Z,50.16
2018-07-19T00:12:01.898Z,50.62
2018-07-19T00:14:30.545Z,50.72
2018-07-19T00:16:59.193Z,50.64
2018-07-19T00:19:27.525Z,50.70
2018-07-19T00:21:56.140Z,51.24
2018-07-19T00:24:24.464Z,50.52
2018-07-19T00:26:52.963Z,51.15
2018-07-19T00:29:21.978Z,51.08
2018-07-19T00:31:52.368Z,52.20
2018-07-19T00:34:22.011Z,51.81
2018-07-19T00:36:50.652Z,51.67
2018-07-19T00:39:19.597Z,52.09
2018-07-19T00:41:48.410Z,52.24
2018-07-19T00:44:17.446Z,52.74
2018-07-19T00:46:46.156Z,52.44
2018-07-19T00:49:14.875Z,52.96
2018-07-19T00:51:43.173Z,52.86
2018-07-19T00:54:11.476Z,53.19
2018-07-19T00:56:39.797Z,53.16
2018-07-19T00:59:08.475Z,53.29
2018-07-19T01:01:37.641Z,53.45
2018-07-19T01:04:06.319Z,53.51
2018-07-19T01:06:34.574Z,53.40
2018-07-19T01:09:03.836Z,53.31
2018-07-19T01:11:32.597Z,53.83
2018-07-19T01:14:01.111Z,54.45
2018-07-19T01:16:30.047Z,53.96
2018-07-19T01:18:58.660Z,54.48
2018-07-19T01:21:26.902Z,54.40
2018-07-19T01:23:55.137Z,54.64
2018-07-19T01:26:23.393Z,55.00
2018-07-19T01:28:52.228Z,55.40
2018-07-19T01:31:20.492Z,54.82
2018-07-19T01:33:50.290Z,55.10
2018-07-19T01:36:18.573Z,55.18
2018-07-19T01:38:47.121Z,55.25
2018-07-19T01:41:38.345Z,55.80
2018-07-19T01:44:06.947Z,56.12
2018-07-19T01:46:36.195Z,56.21
2018-07-19T01:49:05.557Z,56.17
2018-07-19T01:51:34.646Z,56.24
2018-07-19T01:54:04.845Z,56.45
2018-07-19T01:56:33.653Z,56.06
2018-07-19T01:59:08.937Z,56.94
2018-07-19T02:01:37.246Z,56.67
2018-07-19T02:04:07.452Z,57.17
2018-07-19T02:06:35.924Z,57.03
2018-07-19T02:09:05.635Z,57.17
2018-07-19T02:11:34.024Z,57.22
2018-07-19T02:14:02.944Z,57.35
2018-07-19T02:16:31.287Z,57.58
2018-07-19T02:19:00.248Z,57.39
2018-07-19T02:21:28.535Z,57.08
2018-07-19T02:23:57.553Z,57.04
2018-07-19T02:26:26.329Z,57.52
2018-07-19T02:28:54.739Z,57.82
2018-07-19T02:31:23.089Z,58.17
2018-07-19T02:33:52.569Z,57.88
2018-07-19T02:36:20.862Z,58.30
2018-07-19T02:38:49.990Z,58.04
2018-07-19T02:41:19.052Z,58.35
2018-07-19T02:43:47.868Z,58.15
2018-07-19T02:46:17.102Z,57.98
2018-07-19T02:48:45.422Z,58.60
2018-07-19T02:51:15.096Z,59.17
2018-07-19T02:53:46.044Z,59.13
2018-07-19T02:56:16.361Z,58.23
2018-07-19T02:58:45.179Z,57.96
2018-07-19T03:01:14.716Z,58.50
2018-07-19T03:03:44.061Z,58.29
2018-07-19T03:06:12.415Z,57.94
2018-07-19T03:08:40.810Z,57.91
2018-07-19T03:11:11.467Z,57.50
2018-07-19T03:13:40.305Z,57.41
2018-07-19T03:16:08.843Z,56.88
2018-07-19T03:18:37.127Z,57.22
2018-07-19T03:21:06.960Z,57.43
2018-07-19T03:23:35.314Z,57.12
2018-07-19T03:26:03.629Z,57.51
2018-07-19T03:28:31.896Z,57.80
2018-07-19T03:31:00.426Z,56.21
2018-07-19T03:33:28.696Z,54.94
2018-07-19T03:35:57.242Z,56.25
2018-07-19T03:38:25.644Z,56.45
2018-07-19T03:40:57.321Z,56.11
2018-07-19T03:43:25.728Z,55.81
2018-07-19T03:45:56.110Z,56.07
2018-07-19T03:48:27.211Z,54.93
2018-07-19T03:50:55.854Z,55.73
2018-07-19T03:53:24.257Z,55.24
2018-07-19T03:55:52.641Z,55.56
2018-07-19T03:58:22.405Z,55.77
2018-07-19T04:00:52.035Z,55.84
2018-07-19T04:03:22.566Z,55.77
2018-07-19T04:05:50.912Z,56.01
2018-07-19T04:08:20.985Z,55.13
2018-07-19T04:10:49.471Z,54.80
2018-07-19T04:13:17.878Z,54.97
2018-07-19T04:15:46.231Z,55.27
2018-07-19T04:18:15.049Z,55.29
2018-07-19T04:20:44.104Z,54.62
2018-07-19T04:23:12.653Z,55.02
2018-07-19T04:25:41.272Z,55.02
2018-07-19T04:28:10.528Z,54.80
2018-07-19T04:30:39.224Z,53.80
2018-07-19T04:33:08.353Z,54.19
2018-07-19T04:35:43.764Z,53.70
2018-07-19T04:38:13.728Z,54.12
2018-07-19T04:40:42.410Z,53.56
2018-07-19T04:43:10.742Z,53.65
2018-07-19T04:45:39.290Z,54.01
2018-07-19T04:48:09.667Z,53.97
2018-07-19T04:50:37.964Z,53.64
2018-07-19T04:53:08.008Z,53.41
2018-07-19T04:55:37.078Z,53.21
2018-07-19T04:58:05.598Z,52.62
2018-07-19T05:00:34.571Z,53.51
2018-07-19T05:03:03.053Z,53.55
2018-07-19T05:05:31.524Z,52.98
2018-07-19T05:08:00.909Z,53.16
2018-07-19T05:10:30.005Z,52.98
2018-07-19T05:12:59.294Z,52.94
2018-07-19T05:15:28.314Z,52.60
2018-07-19T05:17:56.918Z,52.37
2018-07-19T05:20:26.321Z,51.82
2018-07-19T05:22:55.144Z,52.11
2018-07-19T05:25:23.927Z,51.71
2018-07-19T05:27:52.886Z,51.68
2018-07-19T05:30:22.280Z,51.09
2018-07-19T05:32:51.593Z,50.81
2018-07-19T05:35:20.563Z,50.94
2018-07-19T05:37:49.673Z,51.04
2018-07-19T05:40:18.044Z,50.75
2018-07-19T05:42:47.493Z,50.12
2018-07-19T05:45:16.381Z,50.59
2018-07-19T05:47:45.800Z,50.34
2018-07-19T05:50:14.217Z,50.11
2018-07-19T05:52:43.457Z,49.75
2018-07-19T05:55:12.356Z,50.11
2018-07-19T05:57:40.702Z,49.98
2018-07-19T06:00:09.770Z,49.48
2018-07-19T06:02:38.128Z,48.64
2018-07-19T06:05:07.094Z,49.40
2018-07-19T06:07:35.404Z,49.26
2018-07-19T06:10:03.897Z,49.68
2018-07-19T06:12:32.127Z,49.94
2018-07-19T06:15:00.368Z,50.06
2018-07-19T06:17:30.119Z,49.82
2018-07-19T06:19:58.382Z,50.33
2018-07-19T06:22:27.425Z,50.36
2018-07-19T06:24:56.170Z,49.41
2018-07-19T06:27:25.065Z,48.86
2018-07-19T06:29:53.339Z,48.97
2018-07-19T06:32:22.281Z,49.14
2018-07-19T06:34:51.117Z,48.50
2018-07-19T06:37:19.631Z,48.47
2018-07-19T06:39:47.850Z,47.61
2018-07-19T06:42:16.091Z,46.83
2018-07-19T06:44:44.892Z,47.58
2018-07-19T06:47:13.193Z,47.00
2018-07-19T06:49:41.813Z,47.08
2018-07-19T06:52:10.396Z,46.87
2018-07-19T06:54:38.670Z,46.43
2018-07-19T06:57:06.908Z,45.73
2018-07-19T06:59:35.239Z,46.01
2018-07-19T07:02:04.107Z,46.31
2018-07-19T07:04:32.685Z,45.24
2018-07-19T07:07:00.929Z,44.93
2018-07-19T07:09:29.164Z,45.55
2018-07-19T07:11:57.388Z,45.44
2018-07-19T07:14:25.590Z,45.96
2018-07-19T07:16:53.862Z,45.63
2018-07-19T07:19:22.301Z,44.85
2018-07-19T07:21:50.812Z,44.43
2018-07-19T07:24:19.015Z,44.75
2018-07-19T07:26:47.244Z,44.44
2018-07-19T07:29:15.459Z,45.11
2018-07-19T07:31:43.664Z,44.49
2018-07-19T07:34:11.896Z,43.62
2018-07-19T07:36:40.472Z,43.28
2018-07-19T07:39:10.708Z,43.20
2018-07-19T07:41:39.131Z,43.69
2018-07-19T07:44:07.987Z,43.34
2018-07-19T07:46:36.445Z,43.75
2018-07-19T07:49:05.194Z,42.50
2018-07-19T07:51:33.394Z,42.06
2018-07-19T07:54:02.624Z,41.96
2018-07-19T07:56:30.851Z,42.25
2018-07-19T07:58:59.404Z,42.21
2018-07-19T08:01:27.952Z,42.42
2018-07-19T08:03:56.435Z,42.00
2018-07-19T08:06:25.013Z,41.09
2018-07-19T08:08:53.280Z,40.60
2018-07-19T08:11:22.088Z,41.23
2018-07-19T08:13:50.304Z,41.13
2018-07-19T08:16:18.593Z,40.93
2018-07-19T08:18:47.128Z,40.47
2018-07-19T08:21:15.489Z,39.71
2018-07-19T08:23:43.745Z,39.76
2018-07-19T08:26:11.991Z,39.70
2018-07-19T08:28:40.342Z,39.81
2018-07-19T08:31:08.686Z,39.50
2018-07-19T08:33:37.160Z,39.06
2018-07-19T08:36:05.965Z,38.53
2018-07-19T08:38:34.098Z,38.12
2018-07-19T08:41:02.345Z,38.05
2018-07-19T08:43:31.187Z,36.99
2018-07-19T08:45:59.992Z,37.50
2018-07-19T08:48:28.472Z,37.89
2018-07-19T08:50:56.832Z,37.29
2018-07-19T08:53:25.332Z,36.64
2018-07-19T08:55:53.626Z,36.26
2018-07-19T08:58:22.247Z,35.58
2018-07-19T09:00:50.813Z,35.07
2018-07-19T09:03:20.391Z,34.76
2018-07-19T09:05:48.653Z,34.65
2018-07-19T09:08:16.954Z,34.14
2018-07-19T09:10:45.576Z,33.07
2018-07-19T09:13:14.112Z,34.03
2018-07-19T09:15:42.698Z,34.40
2018-07-19T09:18:10.924Z,34.05
2018-07-19T09:20:40.037Z,34.48
2018-07-19T09:23:08.443Z,33.68
2018-07-19T09:25:36.668Z,32.34
2018-07-19T09:28:05.334Z,32.20
2018-07-19T09:30:33.557Z,31.64
2018-07-19T09:33:01.793Z,32.54
2018-07-19T09:35:32.054Z,32.47
2018-07-19T09:38:00.832Z,31.67
2018-07-19T09:40:30.045Z,31.90
2018-07-19T09:42:58.362Z,31.89
2018-07-19T09:45:27.252Z,31.32
2018-07-19T09:47:55.680Z,30.96
2018-07-19T09:50:24.061Z,31.65
2018-07-19T09:52:53.196Z,30.63
2018-07-19T09:55:21.510Z,30.52
2018-07-19T09:57:49.991Z,30.04
2018-07-19T10:00:23.855Z,29.82
2018-07-19T10:02:52.251Z,29.01
2018-07-19T10:05:20.797Z,28.68
2018-07-19T10:07:49.140Z,27.23
2018-07-19T10:10:17.725Z,27.41
2018-07-19T10:12:46.196Z,27.48
2018-07-19T10:15:14.939Z,25.80
2018-07-19T10:17:43.464Z,25.64
2018-07-19T10:20:11.736Z,25.79
2018-07-19T10:22:40.027Z,25.16
2018-07-19T10:25:08.808Z,26.11
2018-07-19T10:27:37.056Z,26.62
2018-07-19T10:30:08.136Z,26.35
2018-07-19T10:32:37.190Z,26.77
2018-07-19T10:35:05.625Z,26.27
2018-07-19T10:37:34.001Z,26.75
2018-07-19T10:40:02.608Z,26.00
2018-07-19T10:42:30.933Z,26.00
2018-07-19T10:45:00.100Z,26.42
2018-07-19T10:47:28.733Z,26.34
2018-07-19T10:49:57.237Z,25.21
2018-07-19T10:52:25.697Z,25.79
2018-07-19T10:54:53.972Z,25.38
2018-07-19T10:57:22.219Z,25.56
2018-07-19T10:59:50.501Z,25.29
2018-07-19T11:02:18.938Z,24.96
2018-07-19T11:04:47.995Z,26.12
2018-07-19T11:07:17.101Z,26.30
2018-07-19T11:09:46.182Z,25.96
2018-07-19T11:12:14.414Z,25.91
2018-07-19T11:14:43.342Z,24.67
2018-07-19T11:17:12.130Z,25.18
2018-07-19T11:19:40.363Z,24.23
2018-07-19T11:22:08.626Z,24.47
2018-07-19T11:24:37.278Z,24.32
2018-07-19T11:27:06.133Z,23.83
2018-07-19T11:29:34.420Z,23.59
2018-07-19T11:32:03.066Z,23.69
2018-07-19T11:34:31.354Z,23.43
2018-07-19T11:36:59.593Z,24.80
2018-07-19T11:39:28.356Z,24.80
2018-07-19T11:41:56.797Z,24.60
2018-07-19T11:44:25.673Z,24.33
2018-07-19T11:46:53.943Z,24.72
2018-07-19T11:49:22.199Z,24.71
2018-07-19T11:51:50.443Z,24.80
2018-07-19T11:54:18.978Z,24.91
2018-07-19T11:56:47.143Z,24.34
2018-07-19T11:59:15.430Z,24.18
2018-07-19T12:01:43.771Z,23.87
2018-07-19T12:04:12.453Z,24.33
2018-07-19T12:06:40.689Z,24.35
2018-07-19T12:09:10.558Z,24.07
2018-07-19T12:11:38.858Z,23.21
2018-07-19T12:14:07.644Z,23.70
2018-07-19T12:16:35.817Z,23.27
2018-07-19T12:19:04.414Z,23.68
2018-07-19T12:21:33.001Z,23.79
2018-07-19T12:24:01.227Z,22.96
2018-07-19T12:26:29.482Z,23.66
2018-07-19T12:28:57.691Z,24.01
2018-07-19T12:31:26.507Z,23.94
2018-07-19T12:33:54.732Z,23.86
2018-07-19T12:36:23.601Z,23.51
2018-07-19T12:38:51.826Z,23.19
2018-07-19T12:41:20.289Z,22.77
2018-07-19T12:43:48.433Z,22.60
2018-07-19T12:46:17.207Z,22.14
2018-07-19T12:48:45.689Z,22.66
2018-07-19T12:51:14.015Z,22.17
2018-07-19T12:53:42.303Z,22.12
2018-07-19T12:56:10.584Z,22.21
2018-07-19T12:58:39.651Z,21.51
2018-07-19T13:01:08.335Z,22.07
2018-07-19T13:03:36.574Z,21.50
2018-07-19T13:06:04.923Z,21.45
2018-07-19T13:08:33.139Z,21.54
2018-07-19T13:11:01.508Z,21.57
2018-07-19T13:13:29.721Z,22.48
2018-07-19T13:15:58.029Z,22.25
2018-07-19T13:18:26.575Z,21.78
2018-07-19T13:20:55.129Z,21.61
2018-07-19T13:23:23.685Z,20.71
2018-07-19T13:25:52.443Z,19.98
2018-07-19T13:28:20.756Z,18.21
2018-07-19T13:30:49.676Z,17.64
2018-07-19T13:33:17.989Z,17.77
2018-07-19T13:35:46.490Z,17.75
2018-07-19T13:38:14.733Z,17.18
2018-07-19T13:40:43.685Z,17.40
2018-07-19T13:43:11.931Z,16.18
2018-07-19T13:45:40.500Z,15.01
2018-07-19T13:48:08.769Z,15.90
2018-07-19T13:50:37.019Z,15.49
2018-07-19T13:53:36.766Z,15.05
2018-07-19T13:56:06.164Z,14.50
2018-07-19T13:58:35.023Z,14.15
2018-07-19T14:01:04.781Z,13.76
2018-07-19T14:03:33.219Z,14.04
2018-07-19T14:06:02.712Z,14.63
2018-07-19T14:08:31.900Z,14.14
2018-07-19T14:11:00.811Z,13.34
2018-07-19T14:13:29.368Z,12.99
2018-07-19T14:15:58.228Z,12.17
2018-07-19T14:18:26.661Z,11.95
2018-07-19T14:20:54.904Z,11.97
2018-07-19T14:23:23.829Z,12.43
2018-07-19T14:25:52.357Z,12.13
2018-07-19T14:28:21.713Z,11.08
2018-07-19T14:30:50.058Z,11.81
2018-07-19T14:33:19.328Z,11.98
2018-07-19T14:35:47.645Z,11.53
2018-07-19T14:38:15.935Z,11.90
2018-07-19T14:40:44.465Z,11.68
2018-07-19T14:43:12.670Z,10.49
2018-07-19T14:45:41.843Z,11.16
2018-07-19T14:48:10.152Z,10.95
2018-07-19T14:50:39.077Z,11.80
2018-07-19T14:53:08.003Z,13.28
2018-07-19T14:55:36.413Z,13.58
2018-07-19T14:58:04.719Z,12.60
2018-07-19T15:00:33.008Z,11.97
2018-07-19T15:03:01.321Z,11.28
2018-07-19T15:05:29.951Z,10.45
2018-07-19T15:07:58.275Z,10.04
2018-07-19T15:10:26.574Z,10.82
2018-07-19T15:12:55.943Z,11.90
2018-07-19T15:15:24.375Z,12.28
2018-07-19T15:17:52.651Z,12.16
2018-07-19T15:20:22.532Z,10.95
2018-07-19T15:22:51.205Z,10.23
2018-07-19T15:25:19.445Z,11.08
2018-07-19T15:27:47.766Z,11.89
2018-07-19T15:30:16.091Z,11.89
2018-07-19T15:32:44.514Z,11.92
2018-07-19T15:35:13.343Z,11.97
2018-07-19T15:37:41.618Z,11.79
2018-07-19T15:40:11.336Z,11.27
2018-07-19T15:42:39.978Z,11.69
2018-07-19T15:45:08.229Z,11.13
2018-07-19T15:47:36.765Z,12.68
2018-07-19T15:50:05.609Z,12.28
2018-07-19T15:52:34.593Z,11.98
2018-07-19T15:55:03.905Z,11.18
2018-07-19T15:57:33.639Z,10.65
2018-07-19T16:00:02.149Z,10.90
2018-07-19T16:02:31.081Z,11.16
2018-07-19T16:05:00.908Z,11.35
2018-07-19T16:07:29.221Z,10.80
2018-07-19T16:09:57.456Z,11.25
2018-07-19T16:12:26.212Z,10.75
2018-07-19T16:14:54.572Z,11.51
2018-07-19T16:17:22.871Z,11.00
2018-07-19T16:19:50.988Z,10.74
2018-07-19T16:22:19.909Z,11.48
2018-07-19T16:24:49.415Z,10.91
2018-07-19T16:27:17.930Z,11.53
2018-07-19T16:29:46.150Z,12.25
2018-07-19T16:32:14.423Z,13.08
2018-07-19T16:34:43.591Z,13.42
2018-07-19T16:37:11.729Z,12.75
2018-07-19T16:39:39.958Z,13.46
2018-07-19T16:42:08.964Z,13.36
2018-07-19T16:44:37.917Z,13.01
2018-07-19T16:47:06.272Z,13.38
2018-07-19T16:49:35.137Z,13.73
2018-07-19T16:52:03.355Z,13.63
2018-07-19T16:54:32.299Z,12.67
2018-07-19T16:57:00.936Z,12.39
2018-07-19T16:59:29.677Z,12.30
2018-07-19T17:01:57.904Z,13.54
2018-07-19T17:04:27.556Z,14.53
2018-07-19T17:06:56.081Z,14.39
2018-07-19T17:09:24.628Z,14.01
2018-07-19T17:11:53.731Z,14.13
2018-07-19T17:14:22.622Z,13.63
2018-07-19T17:16:51.060Z,13.43
2018-07-19T17:19:20.138Z,13.33
2018-07-19T17:21:48.515Z,13.65
2018-07-19T17:24:17.863Z,13.67
2018-07-19T17:26:46.657Z,14.11
2018-07-19T17:29:15.815Z,14.01
2018-07-19T17:31:44.132Z,14.29
2018-07-19T17:34:12.517Z,14.07
2018-07-19T17:36:41.110Z,15.12
2018-07-19T17:39:11.347Z,17.32
2018-07-19T17:41:39.788Z,18.45
2018-07-19T17:44:08.227Z,19.27
2018-07-19T17:46:36.800Z,20.23
2018-07-19T17:49:05.653Z,21.15
2018-07-19T17:51:33.976Z,21.25
2018-07-19T17:54:02.295Z,21.87
2018-07-19T17:56:30.925Z,22.08
2018-07-19T17:59:00.153Z,23.01
2018-07-19T18:01:28.505Z,23.38
2018-07-19T18:03:57.181Z,23.96
2018-07-19T18:06:26.255Z,23.63
2018-07-19T18:08:55.021Z,24.35
2018-07-19T18:11:23.959Z,24.11
2018-07-19T18:13:52.419Z,24.40
2018-07-19T18:16:21.482Z,24.98
2018-07-19T18:18:50.594Z,25.26
2018-07-19T18:21:19.137Z,25.27
2018-07-19T18:23:47.696Z,25.38
2018-07-19T18:26:16.806Z,25.41
2018-07-19T18:28:45.073Z,25.45
2018-07-19T18:31:13.900Z,25.66
2018-07-19T18:33:42.161Z,25.42
2018-07-19T18:36:12.442Z,26.12
2018-07-19T18:38:41.848Z,25.95
2018-07-19T18:41:10.411Z,26.17
2018-07-19T18:43:39.318Z,26.22
2018-07-19T18:50:52.804Z,26.82
2018-07-19T18:53:22.088Z,27.42
2018-07-19T18:55:50.689Z,27.94
2018-07-19T18:58:20.004Z,27.97
2018-07-19T19:00:49.347Z,27.98
2018-07-19T19:03:17.699Z,28.40
2018-07-19T19:05:46.988Z,28.71
2018-07-19T19:08:15.329Z,29.03
2018-07-19T19:10:44.209Z,29.45
2018-07-19T19:13:13.112Z,30.06
2018-07-19T19:15:41.810Z,30.44
2018-07-19T19:18:10.327Z,31.23
2018-07-19T19:20:39.418Z,31.57
2018-07-19T19:23:08.213Z,31.74
2018-07-19T19:25:36.803Z,31.91
2018-07-19T19:28:06.407Z,32.38
2018-07-19T19:30:35.029Z,32.69
2018-07-19T19:33:04.388Z,32.73
2018-07-19T19:35:33.001Z,32.94
2018-07-19T19:38:01.153Z,33.13
2018-07-19T19:40:30.746Z,33.01
2018-07-19T19:43:00.017Z,32.94
2018-07-19T19:45:28.895Z,32.96
2018-07-19T19:47:57.553Z,33.09
2018-07-19T19:50:25.958Z,32.60
2018-07-19T19:52:54.935Z,32.85
2018-07-19T19:55:23.230Z,32.82
2018-07-19T19:57:52.077Z,32.71
2018-07-19T20:00:20.462Z,32.96
2018-07-19T20:02:49.318Z,32.83
2018-07-19T20:05:17.710Z,33.03
2018-07-19T20:07:46.989Z,33.08
2018-07-19T20:10:15.671Z,33.17
2018-07-19T20:12:44.223Z,33.04
2018-07-19T20:15:13.440Z,33.09
2018-07-19T20:17:42.597Z,33.55
2018-07-19T20:20:11.544Z,33.41
2018-07-19T20:22:40.450Z,33.67
2018-07-19T20:25:10.409Z,33.75
2018-07-19T20:27:39.673Z,33.50
2018-07-19T20:30:08.096Z,33.38
2018-07-19T20:32:36.977Z,33.75
2018-07-19T20:35:05.384Z,33.82
2018-07-19T20:37:34.196Z,34.03
2018-07-19T20:40:02.749Z,34.13
2018-07-19T20:42:32.189Z,34.24
2018-07-19T20:45:02.032Z,34.86
2018-07-19T20:47:32.000Z,34.96
2018-07-19T20:50:01.342Z,34.90
2018-07-19T20:52:30.965Z,35.26
2018-07-19T20:54:59.546Z,35.44
2018-07-19T20:57:27.771Z,35.72
2018-07-19T20:59:56.865Z,35.96
2018-07-19T21:02:26.781Z,35.95
2018-07-19T21:04:55.074Z,36.16
2018-07-19T21:07:23.961Z,36.34
2018-07-19T21:09:52.507Z,36.89
2018-07-19T21:12:21.122Z,36.77
2018-07-19T21:14:49.947Z,36.84
2018-07-19T21:17:18.792Z,36.92
2018-07-19T21:19:49.067Z,37.06
2018-07-19T21:22:19.519Z,37.89
2018-07-19T21:24:48.626Z,38.48
2018-07-19T21:27:17.543Z,38.63
2018-07-19T21:29:46.162Z,38.91
2018-07-19T21:32:14.393Z,39.21
2018-07-19T21:34:43.348Z,39.62
2018-07-19T21:37:12.870Z,39.78
2018-07-19T21:39:41.161Z,40.12
2018-07-19T21:42:09.924Z,39.63
2018-07-19T21:44:38.106Z,40.03
2018-07-19T21:47:07.308Z,39.99
2018-07-19T21:49:36.664Z,40.10
2018-07-19T21:52:05.399Z,40.73
2018-07-19T21:54:35.512Z,40.45
2018-07-19T21:57:03.785Z,40.45
2018-07-19T21:59:32.073Z,40.81
2018-07-19T22:02:00.369Z,40.09
2018-07-19T22:04:29.336Z,40.14
2018-07-19T22:06:57.590Z,40.21
2018-07-19T22:09:26.293Z,40.50
2018-07-19T22:11:54.495Z,40.55
2018-07-19T22:14:22.761Z,40.52
2018-07-19T22:16:51.388Z,40.55
2018-07-19T22:19:20.660Z,40.98
2018-07-19T22:21:48.942Z,41.43
2018-07-19T22:24:17.168Z,41.30
2018-07-19T22:26:46.007Z,41.77
2018-07-19T22:29:14.368Z,41.31
2018-07-19T22:31:42.703Z,41.41
2018-07-19T22:34:11.590Z,41.96
2018-07-19T22:36:39.976Z,42.60
2018-07-19T22:39:12.374Z,42.73
2018-07-19T22:41:44.249Z,42.39
2018-07-19T22:44:15.649Z,42.49
2018-07-19T22:46:47.235Z,42.57
2018-07-19T22:49:17.624Z,43.21
2018-07-19T22:51:47.380Z,43.45
2018-07-19T22:54:16.496Z,44.00
2018-07-19T22:56:45.044Z,44.33
2018-07-19T22:59:14.441Z,45.09
2018-07-19T23:01:42.713Z,44.92
2018-07-19T23:04:11.156Z,44.80
2018-07-19T23:06:39.937Z,44.92
2018-07-19T23:09:09.604Z,45.20
2018-07-19T23:11:38.058Z,45.33
2018-07-19T23:14:06.765Z,45.72
2018-07-19T23:16:35.595Z,46.16
2018-07-19T23:19:04.157Z,46.11
2018-07-19T23:21:32.713Z,46.20
2018-07-19T23:24:01.467Z,45.90
2018-07-19T23:26:29.821Z,46.35
2018-07-19T23:28:58.128Z,46.61
2018-07-19T23:31:26.577Z,46.71
2018-07-19T23:33:54.866Z,46.84
2018-07-19T23:36:27.419Z,47.35
2018-07-19T23:39:00.926Z,47.55
2018-07-19T23:41:46.169Z,47.37
2018-07-19T23:45:18.540Z,47.76
2018-07-19T23:47:46.981Z,48.35
2018-07-19T23:50:15.223Z,48.31
2018-07-19T23:52:43.710Z,48.40
2018-07-19T23:55:12.008Z,48.31
2018-07-19T23:57:40.264Z,48.21
